createdAt,value
2022-12-07T00:01:42.606Z,2.90
2022-12-07T00:04:11.134Z,2.80
2022-12-07T00:06:39.473Z,3.00
2022-12-07T00:09:06.628Z,2.90
2022-12-07T00:11:33.471Z,2.90
2022-12-07T00:14:05.534Z,2.80
2022-12-07T00:16:33.390Z,3.10
2022-12-07T00:19:00.418Z,2.90
2022-12-07T00:21:28.437Z,2.90
2022-12-07T00:23:55.719Z,3.10
2022-12-07T00:26:23.614Z,3.10
2022-12-07T00:28:51.583Z,3.10
2022-12-07T00:31:19.049Z,3.00
2022-12-07T00:33:45.949Z,2.90
2022-12-07T00:36:13.808Z,2.90
2022-12-07T00:38:40.591Z,2.80
2022-12-07T00:41:08.801Z,3.00
2022-12-07T00:43:35.502Z,2.80
2022-12-07T00:46:02.250Z,2.60
2022-12-07T00:48:28.990Z,2.80
2022-12-07T00:50:55.748Z,2.80
2022-12-07T00:53:22.470Z,2.80
2022-12-07T00:55:49.481Z,2.70
2022-12-07T00:58:16.214Z,3.00
2022-12-07T01:00:43.754Z,3.10
2022-12-07T01:03:11.560Z,3.10
2022-12-07T01:05:38.203Z,2.90
2022-12-07T01:08:05.076Z,3.10
2022-12-07T01:10:32.529Z,3.20
2022-12-07T01:12:59.708Z,2.90
2022-12-07T01:15:26.936Z,3.10
2022-12-07T01:17:53.762Z,2.90
2022-12-07T01:20:20.354Z,3.00
2022-12-07T01:22:46.964Z,2.80
2022-12-07T01:25:13.711Z,2.90
2022-12-07T01:27:40.322Z,2.80
2022-12-07T01:30:07.651Z,2.80
2022-12-07T01:32:34.768Z,2.70
2022-12-07T01:35:01.394Z,2.80
2022-12-07T01:37:28.001Z,2.90
2022-12-07T01:39:54.623Z,2.90
2022-12-07T01:42:21.620Z,3.00
2022-12-07T01:45:07.083Z,2.80
2022-12-07T01:47:33.893Z,2.60
2022-12-07T01:50:00.958Z,2.60
2022-12-07T01:52:30.890Z,2.60
2022-12-07T01:55:00.243Z,2.70
2022-12-07T01:57:27.152Z,2.80
2022-12-07T01:59:54.670Z,2.80
2022-12-07T02:02:27.531Z,2.80
2022-12-07T02:04:54.978Z,2.60
2022-12-07T02:07:21.648Z,2.70
2022-12-07T02:09:48.335Z,2.80
2022-12-07T02:12:15.350Z,2.80
2022-12-07T02:14:42.139Z,2.80
2022-12-07T02:17:14.272Z,2.70
2022-12-07T02:20:01.401Z,2.80
2022-12-07T02:22:31.179Z,2.60
2022-12-07T02:25:00.841Z,2.60
2022-12-07T02:27:36.737Z,2.70
2022-12-07T02:30:03.588Z,2.70
2022-12-07T02:32:36.635Z,2.70
2022-12-07T02:35:07.876Z,2.90
2022-12-07T02:37:49.895Z,2.80
2022-12-07T02:40:34.871Z,2.90
2022-12-07T02:43:05.261Z,2.80
2022-12-07T02:45:32.232Z,2.80
2022-12-07T02:48:00.396Z,2.80
2022-12-07T02:50:27.652Z,2.80
2022-12-07T02:52:54.308Z,2.80
2022-12-07T02:55:23.170Z,2.90
2022-12-07T02:57:58.815Z,3.00
2022-12-07T03:00:25.615Z,2.90
2022-12-07T03:03:04.823Z,2.80
2022-12-07T03:05:37.726Z,2.90
2022-12-07T03:08:12.977Z,2.90
2022-12-07T03:10:54.999Z,2.80
2022-12-07T03:13:24.488Z,2.90
2022-12-07T03:15:58.000Z,2.80
2022-12-07T03:18:25.989Z,3.00
2022-12-07T03:20:54.375Z,2.90
2022-12-07T03:23:21.352Z,2.90
2022-12-07T03:25:50.571Z,2.70
2022-12-07T03:28:19.345Z,2.90
2022-12-07T03:30:52.037Z,3.00
2022-12-07T03:33:22.337Z,2.90
2022-12-07T03:35:52.585Z,2.80
2022-12-07T03:38:38.902Z,2.90
2022-12-07T03:41:10.483Z,2.80
2022-12-07T03:43:37.586Z,2.80
2022-12-07T03:46:23.050Z,2.90
2022-12-07T03:48:58.775Z,2.80
2022-12-07T03:51:29.441Z,2.80
2022-12-07T03:54:01.459Z,2.80
2022-12-07T03:56:28.914Z,2.80
2022-12-07T03:58:55.742Z,2.80
2022-12-07T04:01:23.853Z,2.80
2022-12-07T04:03:50.507Z,2.90
2022-12-07T04:06:17.123Z,2.90
2022-12-07T04:08:44.006Z,3.10
2022-12-07T04:11:10.604Z,3.00
2022-12-07T04:13:57.213Z,2.90
2022-12-07T04:16:23.878Z,3.00
2022-12-07T04:18:50.561Z,2.90
2022-12-07T04:21:17.167Z,3.00
2022-12-07T04:23:43.771Z,3.00
2022-12-07T04:26:10.391Z,3.10
2022-12-07T04:28:37.006Z,3.00
2022-12-07T04:31:03.693Z,2.90
2022-12-07T04:33:30.370Z,2.90
2022-12-07T04:35:57.015Z,3.00
2022-12-07T04:38:23.637Z,3.10
2022-12-07T04:40:50.263Z,3.00
2022-12-07T04:43:17.056Z,2.80
2022-12-07T04:45:49.879Z,2.70
2022-12-07T04:48:16.475Z,2.60
2022-12-07T04:50:46.246Z,2.90
2022-12-07T04:53:13.169Z,2.80
2022-12-07T04:55:39.795Z,2.80
2022-12-07T04:58:06.484Z,2.70
2022-12-07T05:00:33.195Z,2.60
2022-12-07T05:02:59.900Z,2.80
2022-12-07T05:05:26.622Z,2.90
2022-12-07T05:07:53.238Z,2.80
2022-12-07T05:10:19.892Z,2.60
2022-12-07T05:12:46.882Z,2.70
2022-12-07T05:15:14.384Z,2.50
2022-12-07T05:17:41.066Z,2.70
2022-12-07T05:20:08.135Z,2.50
2022-12-07T05:22:34.921Z,2.50
2022-12-07T05:25:01.519Z,2.60
2022-12-07T05:27:28.147Z,2.50
2022-12-07T05:29:54.742Z,2.50
2022-12-07T05:32:21.355Z,2.40
2022-12-07T05:34:47.958Z,2.30
2022-12-07T05:37:14.554Z,2.30
2022-12-07T05:39:43.619Z,2.40
2022-12-07T05:42:14.248Z,2.50
2022-12-07T05:44:45.223Z,2.40
2022-12-07T05:47:12.524Z,2.40
2022-12-07T05:49:39.389Z,2.30
2022-12-07T05:52:06.357Z,2.50
2022-12-07T05:54:33.419Z,2.50
2022-12-07T05:57:00.114Z,2.50
2022-12-07T05:59:28.541Z,2.50
2022-12-07T06:01:55.250Z,2.50
2022-12-07T06:04:22.483Z,2.50
2022-12-07T06:06:49.179Z,2.50
2022-12-07T06:09:16.117Z,2.40
2022-12-07T06:12:01.220Z,2.40
2022-12-07T06:14:27.848Z,2.60
2022-12-07T06:16:54.687Z,2.50
2022-12-07T06:19:21.528Z,2.50
2022-12-07T06:21:48.125Z,2.60
2022-12-07T06:24:15.926Z,2.50
2022-12-07T06:26:43.141Z,2.50
2022-12-07T06:29:10.034Z,2.60
2022-12-07T06:31:36.956Z,2.50
2022-12-07T06:34:04.919Z,2.50
2022-12-07T06:36:31.770Z,2.40
2022-12-07T06:38:58.728Z,2.60
2022-12-07T06:41:25.348Z,2.40
2022-12-07T06:43:55.959Z,2.30
2022-12-07T06:46:23.354Z,2.30
2022-12-07T06:48:50.073Z,2.40
2022-12-07T06:51:16.911Z,2.30
2022-12-07T06:53:43.577Z,2.20
2022-12-07T06:56:10.286Z,2.30
2022-12-07T06:58:37.004Z,2.40
2022-12-07T07:01:04.059Z,2.40
2022-12-07T07:03:30.744Z,2.20
2022-12-07T07:05:57.384Z,2.30
2022-12-07T07:08:24.373Z,2.20
2022-12-07T07:10:51.658Z,2.30
2022-12-07T07:13:18.366Z,2.40
2022-12-07T07:15:45.285Z,2.40
2022-12-07T07:18:12.317Z,2.60
2022-12-07T07:20:39.073Z,2.50
2022-12-07T07:23:06.186Z,2.40
2022-12-07T07:25:32.939Z,2.40
2022-12-07T07:27:59.634Z,2.40
2022-12-07T07:30:26.494Z,2.30
2022-12-07T07:32:56.946Z,2.50
2022-12-07T07:35:23.688Z,2.60
2022-12-07T07:37:50.308Z,2.50
2022-12-07T07:40:17.231Z,2.40
2022-12-07T07:42:43.849Z,2.40
2022-12-07T07:45:10.730Z,2.40
2022-12-07T07:47:37.417Z,2.40
2022-12-07T07:50:04.378Z,2.30
2022-12-07T07:52:31.823Z,2.30
2022-12-07T07:54:58.535Z,2.30
2022-12-07T07:57:25.164Z,2.40
2022-12-07T07:59:51.840Z,2.40
2022-12-07T08:02:19.367Z,2.40
2022-12-07T08:04:46.621Z,2.30
2022-12-07T08:07:13.638Z,2.30
2022-12-07T08:09:40.454Z,2.50
2022-12-07T08:12:07.520Z,2.40
2022-12-07T08:14:34.966Z,2.40
2022-12-07T08:17:02.032Z,2.30
2022-12-07T08:19:28.675Z,2.30
2022-12-07T08:21:56.841Z,2.40
2022-12-07T08:24:23.866Z,2.30
2022-12-07T08:26:51.295Z,2.30
2022-12-07T08:29:18.452Z,2.20
2022-12-07T08:31:45.285Z,2.60
2022-12-07T08:34:12.538Z,2.50
2022-12-07T08:36:39.280Z,2.50
2022-12-07T08:39:30.815Z,2.50
2022-12-07T08:41:52.486Z,2.60
2022-12-07T08:44:19.093Z,2.50
2022-12-07T08:46:54.834Z,2.60
2022-12-07T08:49:27.107Z,2.60
2022-12-07T08:51:53.803Z,2.90
2022-12-07T08:54:20.572Z,3.00
2022-12-07T08:56:50.067Z,2.90
2022-12-07T08:59:18.879Z,3.00
2022-12-07T09:01:45.695Z,3.20
2022-12-07T09:04:12.400Z,3.00
2022-12-07T09:06:39.752Z,3.10
2022-12-07T09:09:07.547Z,3.20
2022-12-07T09:11:34.272Z,3.10
2022-12-07T09:14:00.885Z,3.10
2022-12-07T09:16:27.734Z,3.10
2022-12-07T09:18:54.586Z,3.20
2022-12-07T09:21:21.297Z,3.10
2022-12-07T09:23:47.916Z,3.00
2022-12-07T09:26:14.550Z,3.00
2022-12-07T09:28:41.217Z,3.00
2022-12-07T09:31:23.420Z,3.10
2022-12-07T09:33:58.315Z,3.10
2022-12-07T09:36:25.337Z,3.30
2022-12-07T09:38:52.039Z,3.50
2022-12-07T09:41:19.213Z,3.40
2022-12-07T09:43:47.102Z,3.70
2022-12-07T09:46:15.768Z,3.70
2022-12-07T09:48:43.826Z,3.50
2022-12-07T09:51:24.274Z,3.70
2022-12-07T09:53:56.029Z,3.80
2022-12-07T09:56:23.446Z,3.90
2022-12-07T09:58:50.426Z,3.90
2022-12-07T10:01:21.716Z,3.90
2022-12-07T10:03:52.984Z,4.10
2022-12-07T10:06:19.815Z,4.20
2022-12-07T10:08:46.628Z,4.20
2022-12-07T10:11:15.613Z,4.20
2022-12-07T10:13:48.689Z,4.20
2022-12-07T10:16:24.648Z,4.30
2022-12-07T10:18:51.371Z,4.30
2022-12-07T10:21:21.551Z,4.30
2022-12-07T10:24:01.174Z,4.30
2022-12-07T10:26:28.655Z,4.20
2022-12-07T10:28:55.825Z,4.30
2022-12-07T10:31:23.158Z,4.20
2022-12-07T10:33:52.575Z,4.40
2022-12-07T10:36:35.832Z,4.50
2022-12-07T10:39:04.629Z,4.60
2022-12-07T10:41:31.553Z,4.60
2022-12-07T10:43:58.704Z,4.50
2022-12-07T10:46:31.668Z,4.40
2022-12-07T10:48:58.370Z,4.40
2022-12-07T10:51:27.794Z,4.50
2022-12-07T10:54:17.475Z,4.60
2022-12-07T10:56:59.356Z,4.70
2022-12-07T10:59:35.238Z,4.70
2022-12-07T11:02:22.554Z,4.50
2022-12-07T11:04:52.672Z,4.60
2022-12-07T11:07:31.538Z,4.70
2022-12-07T11:10:08.785Z,4.60
2022-12-07T11:12:35.791Z,4.50
2022-12-07T11:15:05.525Z,4.50
2022-12-07T11:17:32.128Z,4.60
2022-12-07T11:20:17.774Z,4.70
2022-12-07T11:22:49.774Z,4.80
2022-12-07T11:25:25.627Z,4.70
2022-12-07T11:28:04.138Z,4.80
2022-12-07T11:30:49.579Z,5.10
2022-12-07T11:33:37.912Z,5.60
2022-12-07T11:36:04.886Z,5.40
2022-12-07T11:38:43.479Z,5.20
2022-12-07T11:41:16.899Z,5.00
2022-12-07T11:43:51.156Z,5.20
2022-12-07T11:46:18.181Z,5.30
2022-12-07T11:48:53.016Z,5.50
2022-12-07T11:51:22.003Z,5.40
2022-12-07T11:53:54.767Z,5.20
2022-12-07T11:56:22.932Z,5.00
2022-12-07T11:58:56.448Z,4.90
2022-12-07T12:01:34.212Z,5.00
2022-12-07T12:04:10.070Z,4.80
2022-12-07T12:06:41.188Z,5.00
2022-12-07T12:15:25.415Z,4.60
2022-12-07T12:18:01.120Z,5.00
2022-12-07T12:20:30.488Z,5.00
2022-12-07T12:23:15.761Z,5.00
2022-12-07T12:25:43.543Z,4.90
2022-12-07T12:28:39.650Z,5.00
2022-12-07T12:31:18.404Z,5.00
2022-12-07T12:33:49.329Z,5.00
2022-12-07T12:36:19.003Z,4.90
2022-12-07T12:38:50.050Z,4.70
2022-12-07T12:41:35.500Z,4.50
2022-12-07T12:44:02.467Z,4.20
2022-12-07T12:46:35.522Z,4.30
2022-12-07T12:49:20.580Z,4.30
2022-12-07T12:51:50.245Z,4.30
2022-12-07T12:54:27.123Z,4.30
2022-12-07T12:56:59.131Z,4.30
2022-12-07T12:59:27.655Z,4.50
2022-12-07T13:02:16.787Z,4.50
2022-12-07T13:04:57.378Z,4.50
2022-12-07T13:07:42.539Z,4.50
2022-12-07T13:10:21.538Z,4.60
2022-12-07T13:12:58.367Z,4.40
2022-12-07T13:15:37.435Z,4.30
2022-12-07T13:18:05.956Z,4.50
2022-12-07T13:20:44.056Z,4.30
2022-12-07T13:23:11.327Z,4.40
2022-12-07T13:25:42.186Z,4.40
2022-12-07T13:28:13.683Z,4.40
2022-12-07T13:30:48.508Z,4.20
2022-12-07T13:33:16.682Z,4.40
2022-12-07T13:35:43.329Z,4.50
2022-12-07T13:38:20.122Z,4.40
2022-12-07T13:41:00.281Z,4.40
2022-12-07T13:43:26.859Z,4.50
2022-12-07T13:45:57.097Z,4.50
2022-12-07T13:48:34.590Z,4.40
2022-12-07T13:51:02.244Z,4.30
2022-12-07T13:53:31.236Z,4.30
2022-12-07T13:55:58.882Z,4.20
2022-12-07T13:58:26.241Z,4.40
2022-12-07T14:00:53.010Z,4.30
2022-12-07T14:03:19.664Z,4.10
2022-12-07T14:05:46.381Z,4.20
2022-12-07T14:08:13.777Z,4.10
2022-12-07T14:10:49.327Z,4.10
2022-12-07T14:13:33.036Z,4.20
2022-12-07T14:16:00.151Z,4.20
2022-12-07T14:18:28.616Z,4.20
2022-12-07T14:21:10.336Z,3.90
2022-12-07T14:23:37.722Z,3.90
2022-12-07T14:26:19.607Z,3.80
2022-12-07T14:28:46.662Z,3.80
2022-12-07T14:31:21.301Z,3.70
2022-12-07T14:33:50.907Z,3.60
2022-12-07T14:36:17.560Z,3.60
2022-12-07T14:38:44.167Z,3.70
2022-12-07T14:41:34.262Z,3.80
2022-12-07T14:44:22.289Z,3.80
2022-12-07T14:46:48.447Z,3.70
2022-12-07T14:54:48.680Z,3.40
2022-12-07T14:57:15.337Z,3.40
2022-12-07T14:59:45.272Z,3.40
2022-12-07T15:02:13.439Z,3.10
2022-12-07T15:04:40.071Z,3.10
2022-12-07T15:07:10.098Z,2.90
2022-12-07T15:09:36.687Z,3.00
2022-12-07T15:12:04.649Z,2.90
2022-12-07T15:14:31.247Z,2.80
2022-12-07T15:19:44.468Z,2.80
2022-12-07T15:22:11.846Z,2.70
2022-12-07T15:24:38.737Z,2.70
2022-12-07T15:27:05.452Z,2.60
2022-12-07T15:29:32.204Z,2.60
2022-12-07T15:31:59.042Z,2.60
2022-12-07T15:34:27.473Z,2.40
2022-12-07T15:36:54.164Z,2.30
2022-12-07T15:39:20.783Z,2.30
2022-12-07T15:41:47.462Z,2.10
2022-12-07T15:44:32.752Z,2.10
2022-12-07T15:46:59.417Z,2.10
2022-12-07T15:49:26.123Z,2.20
2022-12-07T15:51:52.750Z,2.30
2022-12-07T15:54:26.628Z,2.20
2022-12-07T15:56:53.679Z,2.20
2022-12-07T15:59:20.296Z,2.30
2022-12-07T16:01:47.257Z,2.20
2022-12-07T16:04:14.071Z,2.20
2022-12-07T16:06:40.940Z,2.20
2022-12-07T16:09:08.001Z,2.20
2022-12-07T16:11:34.684Z,2.10
2022-12-07T16:14:01.320Z,2.00
2022-12-07T16:16:28.376Z,2.10
2022-12-07T16:18:55.329Z,2.00
2022-12-07T16:21:25.346Z,2.00
2022-12-07T16:23:52.650Z,1.90
2022-12-07T16:26:20.066Z,1.80
2022-12-07T16:28:49.067Z,1.80
2022-12-07T16:31:16.471Z,1.90
2022-12-07T16:33:43.844Z,2.00
2022-12-07T16:36:11.494Z,2.00
2022-12-07T16:38:38.704Z,1.90
2022-12-07T16:41:06.706Z,1.80
2022-12-07T16:43:33.580Z,1.80
2022-12-07T16:46:00.177Z,1.90
2022-12-07T16:48:26.839Z,1.90
2022-12-07T16:50:56.677Z,1.90
2022-12-07T16:53:24.426Z,1.70
2022-12-07T16:55:51.284Z,1.80
2022-12-07T16:58:18.594Z,1.90
2022-12-07T17:00:45.674Z,1.90
2022-12-07T17:03:17.608Z,1.70
2022-12-07T17:05:47.615Z,1.30
2022-12-07T17:08:14.783Z,1.20
2022-12-07T17:10:42.985Z,1.30
2022-12-07T17:13:29.031Z,1.00
2022-12-07T17:15:56.841Z,1.10
2022-12-07T17:18:23.476Z,1.20
2022-12-07T17:20:50.074Z,1.10
2022-12-07T17:23:16.684Z,1.00
2022-12-07T17:25:43.275Z,0.70
2022-12-07T17:28:09.911Z,0.70
2022-12-07T17:30:36.523Z,0.60
2022-12-07T17:33:03.235Z,0.70
2022-12-07T17:35:29.842Z,1.10
2022-12-07T17:37:57.017Z,1.50
2022-12-07T17:40:23.613Z,1.40
2022-12-07T17:42:51.447Z,1.50
2022-12-07T17:45:18.240Z,1.50
2022-12-07T17:47:44.860Z,1.50
2022-12-07T17:50:11.603Z,1.40
2022-12-07T17:52:56.979Z,1.60
2022-12-07T17:55:23.719Z,1.70
2022-12-07T17:57:51.747Z,1.60
2022-12-07T18:00:19.437Z,1.50
2022-12-07T18:02:46.125Z,1.60
2022-12-07T18:05:12.817Z,1.60
2022-12-07T18:07:39.575Z,1.70
2022-12-07T18:10:09.080Z,1.90
2022-12-07T18:12:35.760Z,1.80
2022-12-07T18:15:02.687Z,1.80
2022-12-07T18:17:29.515Z,1.70
2022-12-07T18:19:56.146Z,1.70
2022-12-07T18:22:22.769Z,1.70
2022-12-07T18:24:49.408Z,1.70
2022-12-07T18:27:16.024Z,1.70
2022-12-07T18:29:42.634Z,1.80
2022-12-07T18:32:09.293Z,1.70
2022-12-07T18:34:35.938Z,1.80
2022-12-07T18:37:02.756Z,1.70
2022-12-07T18:39:33.695Z,1.80
2022-12-07T18:42:01.076Z,1.80
2022-12-07T18:44:27.900Z,1.90
2022-12-07T18:46:54.586Z,1.90
2022-12-07T18:49:21.229Z,1.90
2022-12-07T18:51:47.882Z,1.90
2022-12-07T18:54:14.652Z,1.80
2022-12-07T18:56:41.295Z,1.80
2022-12-07T18:59:26.661Z,2.00
2022-12-07T19:01:54.356Z,1.90
2022-12-07T19:04:21.427Z,2.00
2022-12-07T19:06:48.733Z,1.80
2022-12-07T19:09:15.733Z,1.90
2022-12-07T19:11:52.032Z,1.90
2022-12-07T19:14:26.452Z,2.20
2022-12-07T19:16:54.499Z,2.00
2022-12-07T19:19:22.196Z,1.80
2022-12-07T19:21:49.216Z,1.80
2022-12-07T19:24:22.800Z,2.00
2022-12-07T19:26:50.662Z,2.00
2022-12-07T19:29:17.304Z,2.00
2022-12-07T19:31:43.997Z,2.10
2022-12-07T19:34:11.647Z,2.20
2022-12-07T19:36:38.554Z,2.00
2022-12-07T19:39:09.810Z,2.00
2022-12-07T19:41:39.552Z,1.90
2022-12-07T19:44:16.832Z,2.10
2022-12-07T19:46:45.740Z,2.10
2022-12-07T19:49:15.967Z,2.00
2022-12-07T19:51:46.859Z,2.00
2022-12-07T19:54:14.906Z,1.70
2022-12-07T19:56:42.324Z,1.70
2022-12-07T19:59:09.462Z,1.80
2022-12-07T20:01:38.241Z,1.80
2022-12-07T20:04:06.315Z,1.90
2022-12-07T20:06:32.995Z,1.90
2022-12-07T20:08:59.853Z,1.80
2022-12-07T20:11:45.230Z,1.80
2022-12-07T20:14:12.791Z,1.70
2022-12-07T20:16:44.562Z,1.50
2022-12-07T20:19:11.837Z,1.60
2022-12-07T20:21:38.740Z,1.60
2022-12-07T20:24:07.037Z,1.70
2022-12-07T20:26:34.500Z,2.10
2022-12-07T20:29:07.420Z,1.80
2022-12-07T20:31:35.911Z,1.50
2022-12-07T20:34:03.569Z,1.30
2022-12-07T20:36:33.192Z,1.40
2022-12-07T20:39:01.173Z,1.30
2022-12-07T20:41:46.576Z,1.20
2022-12-07T20:44:13.999Z,1.10
2022-12-07T20:46:40.983Z,1.10
2022-12-07T20:49:08.208Z,1.20
2022-12-07T20:51:34.803Z,1.00
2022-12-07T20:54:01.440Z,0.90
2022-12-07T20:56:29.303Z,0.90
2022-12-07T20:58:57.081Z,1.30
2022-12-07T21:01:23.877Z,1.30
2022-12-07T21:03:53.740Z,1.40
2022-12-07T21:06:20.344Z,1.40
2022-12-07T21:08:47.899Z,1.60
2022-12-07T21:11:15.139Z,1.50
2022-12-07T21:13:42.120Z,1.60
2022-12-07T21:16:10.398Z,1.70
2022-12-07T21:18:38.257Z,1.80
2022-12-07T21:21:05.813Z,1.80
2022-12-07T21:23:32.772Z,1.80
2022-12-07T21:25:59.382Z,1.90
2022-12-07T21:28:26.086Z,1.90
2022-12-07T21:31:12.464Z,1.90
2022-12-07T21:33:40.274Z,1.80
2022-12-07T21:36:07.644Z,1.70
2022-12-07T21:38:34.393Z,1.80
2022-12-07T21:41:10.095Z,1.90
2022-12-07T21:43:36.889Z,2.00
2022-12-07T21:46:03.564Z,2.00
2022-12-07T21:48:30.217Z,1.90
2022-12-07T21:51:03.361Z,1.90
2022-12-07T21:53:29.981Z,1.90
2022-12-07T21:55:56.597Z,1.90
2022-12-07T21:58:23.281Z,2.00
2022-12-07T22:00:49.886Z,2.00
2022-12-07T22:03:16.663Z,1.90
2022-12-07T22:05:43.307Z,1.80
2022-12-07T22:08:10.000Z,1.90
2022-12-07T22:10:36.746Z,2.00
2022-12-07T22:13:03.388Z,1.90
2022-12-07T22:15:30.024Z,1.80
2022-12-07T22:17:56.640Z,1.90
2022-12-07T22:20:23.356Z,1.90
2022-12-07T22:22:50.260Z,2.00
2022-12-07T22:25:17.069Z,1.80
2022-12-07T22:27:43.811Z,1.90
2022-12-07T22:30:11.354Z,1.80
2022-12-07T22:32:53.870Z,1.80
2022-12-07T22:35:20.601Z,2.00
2022-12-07T22:37:47.253Z,2.10
2022-12-07T22:40:14.151Z,2.10
2022-12-07T22:42:41.435Z,2.00
2022-12-07T22:45:08.724Z,2.00
2022-12-07T22:47:35.346Z,2.00
2022-12-07T22:50:01.976Z,2.00
2022-12-07T22:52:28.608Z,2.10
2022-12-07T22:54:55.195Z,2.10
2022-12-07T22:57:23.551Z,2.10
2022-12-07T22:59:50.185Z,2.00
2022-12-07T23:02:16.818Z,1.90
2022-12-07T23:04:43.552Z,2.00
2022-12-07T23:07:10.218Z,2.00
2022-12-07T23:09:36.857Z,2.00
2022-12-07T23:12:22.155Z,1.90
2022-12-07T23:14:48.808Z,2.00
2022-12-07T23:17:15.452Z,2.00
2022-12-07T23:19:42.047Z,1.90
2022-12-07T23:22:08.984Z,1.90
2022-12-07T23:24:35.625Z,1.70
2022-12-07T23:27:02.335Z,1.70
2022-12-07T23:29:28.947Z,1.90
2022-12-07T23:31:56.058Z,2.10
2022-12-07T23:34:22.761Z,1.80
2022-12-07T23:36:49.451Z,1.80
2022-12-07T23:39:16.101Z,1.80
2022-12-07T23:41:42.962Z,2.40
2022-12-07T23:44:11.775Z,2.30
2022-12-07T23:46:38.508Z,1.80
2022-12-07T23:49:06.100Z,1.70
2022-12-07T23:51:33.242Z,1.70
2022-12-07T23:54:01.596Z,2.20
2022-12-07T23:56:29.204Z,2.20
2022-12-07T23:58:56.243Z,1.80
